Emei Shan, China
Current Conditions -  °F | °C
As of 9:00 PM on Monday 20 Oct 2014 (Local Time) from ZUUU Reporting Station
Haze Haze  
Wind Chill: 68°   Ceiling: Unl
Heat Index: 68°   Visibility: 3mi
Dew Point: 61°   Wind: 2mph
Humidity: 78%   Direction: 310°NW
Pressure: 30.09"   Gusts: NA
Location:  29.52°N, 103.33°E
Report Text: ZUUU 201300Z 31001MPS 5000 BR SCT040 20/16 Q1019 NOSIG
Loading
Personal Weather Stations






























Interactive Weather Map
Tropical Storm Tracking
New forecast layout! Learn more

10-Day Weather Forecast

Advertisements
Track Severe Weather on mobile